Time;durP1;ratioP1;P1;durP2;ratioP2;P2;SDS_P1;SDS_P2;PMS_P1;PMS_P2;Temp;Humidity;BMP_temperature;BMP_pressure;BME280_temperature;BME280_humidity;BME280_pressure;Samples;Min_cycle;Max_cycle;Signal;HPM_P1;HPM_P2
2021/10/31 00:00:47;;;;;;;10.07;7.03;;;12.80;99.90;;;;;;5047712;28;20022;-84
2021/10/31 00:03:14;;;;;;;9.25;7.10;;;12.80;99.90;;;;;;5048186;28;20052;-84
2021/10/31 00:05:40;;;;;;;10.70;7.45;;;12.70;99.90;;;;;;5033033;28;20032;-84
2021/10/31 00:08:05;;;;;;;10.88;7.05;;;12.70;99.90;;;;;;5048762;28;20030;-84
2021/10/31 00:10:31;;;;;;;10.48;6.93;;;12.80;99.90;;;;;;5047769;28;20033;-84
2021/10/31 00:12:57;;;;;;;9.77;6.47;;;12.80;99.90;;;;;;5048275;28;20449;-84
2021/10/31 00:15:23;;;;;;;9.75;6.90;;;12.80;99.90;;;;;;5031273;28;20159;-84
2021/10/31 00:17:49;;;;;;;12.18;6.50;;;12.70;99.90;;;;;;5048264;28;20471;-84
2021/10/31 00:20:15;;;;;;;12.63;7.35;;;12.70;99.90;;;;;;5047399;28;20036;-84
2021/10/31 00:22:44;;;;;;;12.27;7.57;;;12.70;99.90;;;;;;5047650;28;20026;-84
2021/10/31 00:25:10;;;;;;;9.15;6.35;;;12.70;99.90;;;;;;5047702;28;20505;-83
2021/10/31 00:27:36;;;;;;;9.27;6.60;;;12.70;99.90;;;;;;5047813;28;20091;-84
2021/10/31 00:30:03;;;;;;;9.32;6.20;;;12.70;99.90;;;;;;5031953;28;20397;-83
2021/10/31 00:32:29;;;;;;;11.20;6.30;;;12.70;99.90;;;;;;5047749;28;20033;-83
2021/10/31 00:34:55;;;;;;;8.27;6.07;;;12.70;99.90;;;;;;5031333;28;20034;-84
2021/10/31 00:37:20;;;;;;;9.20;6.47;;;12.60;99.90;;;;;;5030864;28;20120;-84
2021/10/31 00:39:46;;;;;;;8.00;5.78;;;12.60;99.90;;;;;;5046939;28;20025;-83
2021/10/31 00:42:12;;;;;;;8.80;6.00;;;12.60;99.90;;;;;;5047641;28;20025;-83
2021/10/31 00:44:38;;;;;;;9.45;6.63;;;12.50;99.90;;;;;;5047327;28;20021;-84
2021/10/31 00:47:04;;;;;;;9.77;6.40;;;12.50;99.90;;;;;;5047611;28;20029;-84
2021/10/31 00:49:30;;;;;;;8.02;5.90;;;12.50;99.90;;;;;;5047119;28;20067;-83
2021/10/31 00:51:56;;;;;;;9.23;6.20;;;12.50;99.90;;;;;;5047761;28;20034;-84
2021/10/31 00:54:21;;;;;;;8.18;5.88;;;12.50;99.90;;;;;;5047582;28;20069;-83
2021/10/31 00:56:48;;;;;;;11.50;6.70;;;12.50;99.90;;;;;;5047450;28;20037;-84
2021/10/31 00:59:13;;;;;;;11.63;6.70;;;12.50;99.90;;;;;;5046447;28;20033;-83
2021/10/31 01:01:39;;;;;;;10.68;6.45;;;12.50;99.90;;;;;;5047735;28;20429;-84
2021/10/31 01:04:06;;;;;;;12.75;6.50;;;12.50;99.90;;;;;;5047752;28;20033;-84
2021/10/31 01:06:50;;;;;;;9.50;6.22;;;12.40;99.90;;;;;;5047492;28;20034;-84
2021/10/31 01:09:22;;;;;;;9.40;6.32;;;12.40;99.90;;;;;;5030749;28;20453;-84
2021/10/31 01:12:32;;;;;;;9.38;6.78;;;12.40;99.90;;;;;;5031932;28;20034;-83
2021/10/31 01:15:22;;;;;;;10.15;6.05;;;12.40;99.90;;;;;;5004144;28;20393;-83
2021/10/31 01:18:13;;;;;;;9.03;5.93;;;12.30;99.90;;;;;;5014782;28;20087;-84
2021/10/31 01:21:06;;;;;;;8.55;6.20;;;12.30;99.90;;;;;;5032112;28;20254;-84
2021/10/31 01:23:37;;;;;;;11.57;5.68;;;12.30;99.90;;;;;;5030814;28;20037;-83
2021/10/31 01:26:41;;;;;;;7.45;5.32;;;12.30;99.90;;;;;;5030785;28;20112;-84
2021/10/31 01:29:17;;;;;;;7.85;5.43;;;12.30;99.90;;;;;;4999644;28;20207;-83
2021/10/31 01:31:54;;;;;;;8.63;5.45;;;12.30;99.90;;;;;;5030829;28;20488;-84
2021/10/31 01:34:34;;;;;;;5.78;4.43;;;12.30;99.90;;;;;;5048558;28;20036;-84
2021/10/31 01:37:19;;;;;;;7.35;4.65;;;12.30;99.90;;;;;;5051809;28;20453;-83
2021/10/31 01:40:02;;;;;;;8.02;5.20;;;12.20;99.90;;;;;;5036336;28;20053;-83
2021/10/31 01:42:38;;;;;;;8.18;4.95;;;12.10;99.90;;;;;;5036937;28;20214;-83
2021/10/31 01:45:33;;;;;;;7.32;4.93;;;12.10;99.90;;;;;;5035344;28;20036;-84
2021/10/31 01:48:29;;;;;;;10.65;5.18;;;12.20;99.90;;;;;;5018858;28;20041;-84
2021/10/31 01:51:00;;;;;;;7.25;4.65;;;12.20;99.90;;;;;;5035027;28;20410;-84
2021/10/31 01:53:31;;;;;;;8.18;5.10;;;12.10;99.90;;;;;;5052198;28;20076;-84
2021/10/31 01:56:06;;;;;;;9.80;4.72;;;12.10;99.90;;;;;;5037427;28;20025;-84
2021/10/31 01:58:37;;;;;;;9.43;4.43;;;12.10;99.90;;;;;;5036799;28;20026;-84
2021/10/31 02:01:05;;;;;;;8.05;4.50;;;12.00;99.90;;;;;;5051747;28;20087;-83
2021/10/31 02:03:32;;;;;;;7.63;4.50;;;12.00;99.90;;;;;;5051580;28;20037;-84
2021/10/31 02:05:59;;;;;;;9.70;4.60;;;12.00;99.90;;;;;;5051881;28;20091;-84
2021/10/31 02:08:27;;;;;;;6.93;4.10;;;11.90;99.90;;;;;;5052035;28;20026;-84
2021/10/31 02:10:56;;;;;;;6.18;3.85;;;11.90;99.90;;;;;;5051605;28;20505;-84
2021/10/31 02:13:25;;;;;;;5.85;3.58;;;11.90;99.90;;;;;;5051899;28;20036;-84
2021/10/31 02:15:52;;;;;;;7.38;3.50;;;11.90;99.90;;;;;;5052037;28;20040;-84
2021/10/31 02:18:20;;;;;;;6.07;4.05;;;12.00;99.90;;;;;;5051934;28;20076;-84
2021/10/31 02:20:49;;;;;;;6.43;3.80;;;11.90;99.90;;;;;;5051614;28;20155;-84
2021/10/31 02:23:15;;;;;;;7.95;3.80;;;11.80;99.90;;;;;;5052023;28;20025;-84
2021/10/31 02:25:41;;;;;;;8.95;4.28;;;11.90;99.90;;;;;;5051528;28;20125;-84
2021/10/31 02:28:06;;;;;;;13.02;4.80;;;11.80;99.90;;;;;;5051705;28;20025;-83
2021/10/31 02:30:32;;;;;;;11.53;5.47;;;11.90;99.90;;;;;;5034816;28;20021;-84
2021/10/31 02:32:58;;;;;;;10.23;5.70;;;11.80;99.90;;;;;;5051821;28;20043;-84
2021/10/31 02:35:24;;;;;;;16.17;5.72;;;11.80;99.90;;;;;;5051567;28;20082;-84
2021/10/31 02:37:50;;;;;;;13.23;6.10;;;11.80;99.90;;;;;;5051604;28;20034;-84
2021/10/31 02:40:22;;;;;;;12.85;6.20;;;11.80;99.90;;;;;;5050609;28;20029;-84
2021/10/31 02:42:48;;;;;;;10.18;6.10;;;11.80;99.90;;;;;;5051203;28;20057;-84
2021/10/31 02:45:15;;;;;;;11.23;5.70;;;11.80;99.90;;;;;;5050705;28;20130;-84
2021/10/31 02:48:01;;;;;;;11.30;5.43;;;11.90;99.90;;;;;;5034898;28;20048;-84
2021/10/31 02:50:45;;;;;;;10.82;5.30;;;11.90;99.90;;;;;;5051049;28;20501;-84
2021/10/31 02:53:24;;;;;;;9.07;4.60;;;12.00;99.90;;;;;;5051866;28;20143;-84
2021/10/31 02:56:21;;;;;;;7.07;4.95;;;12.00;99.90;;;;;;5036162;28;20090;-84
2021/10/31 02:58:52;;;;;;;9.65;4.70;;;12.00;99.90;;;;;;5034153;28;20064;-84
2021/10/31 03:01:19;;;;;;;7.60;4.32;;;11.90;99.90;;;;;;5034952;28;20040;-84
2021/10/31 03:03:46;;;;;;;7.32;4.97;;;11.90;99.90;;;;;;5052032;28;20068;-84
2021/10/31 03:06:12;;;;;;;6.17;4.20;;;11.80;99.90;;;;;;5049980;28;20033;-84
2021/10/31 03:08:39;;;;;;;7.80;4.43;;;11.80;99.90;;;;;;5033062;28;20052;-84
2021/10/31 03:11:08;;;;;;;11.95;4.70;;;11.80;99.90;;;;;;5048953;28;20103;-85
2021/10/31 03:13:35;;;;;;;9.23;4.80;;;11.80;99.90;;;;;;5034962;28;20067;-84
2021/10/31 03:16:01;;;;;;;13.65;4.68;;;11.80;99.90;;;;;;5049642;28;20494;-84
2021/10/31 03:18:27;;;;;;;8.93;4.73;;;11.70;99.90;;;;;;5049202;28;20043;-85
2021/10/31 03:20:53;;;;;;;11.53;4.67;;;11.70;99.90;;;;;;5049178;28;20025;-84
2021/10/31 03:23:19;;;;;;;9.10;4.40;;;11.80;99.90;;;;;;5034881;28;20096;-84
2021/10/31 03:25:45;;;;;;;10.60;4.90;;;11.70;99.90;;;;;;5049708;28;20033;-84
2021/10/31 03:28:11;;;;;;;10.60;5.00;;;11.70;99.90;;;;;;5049459;28;20497;-84
2021/10/31 03:30:37;;;;;;;15.00;4.93;;;11.70;99.90;;;;;;5048740;28;20022;-84
2021/10/31 03:33:02;;;;;;;12.95;5.07;;;11.70;99.90;;;;;;5048954;28;20057;-85
2021/10/31 03:35:29;;;;;;;10.10;4.88;;;11.70;99.90;;;;;;5048212;28;20339;-85
2021/10/31 03:37:55;;;;;;;11.63;4.90;;;11.70;99.90;;;;;;5049168;28;20431;-84
2021/10/31 03:40:21;;;;;;;8.93;4.68;;;11.70;99.90;;;;;;5047737;28;20082;-85
2021/10/31 03:42:47;;;;;;;11.40;4.70;;;11.70;99.90;;;;;;5047836;28;20470;-86
2021/10/31 03:45:14;;;;;;;9.17;4.87;;;11.70;99.90;;;;;;5048240;28;20025;-83
2021/10/31 03:47:46;;;;;;;8.20;5.10;;;11.70;99.90;;;;;;5048387;28;20045;-84
2021/10/31 03:50:12;;;;;;;8.77;5.13;;;11.80;99.90;;;;;;5048422;28;20044;-83
2021/10/31 03:52:38;;;;;;;9.15;5.28;;;11.80;99.90;;;;;;5048571;28;20029;-85
2021/10/31 03:55:04;;;;;;;12.73;5.30;;;11.70;99.90;;;;;;5048266;28;20126;-84
2021/10/31 03:57:30;;;;;;;9.55;4.53;;;11.80;99.90;;;;;;5031408;28;20037;-84
2021/10/31 03:59:56;;;;;;;10.13;4.73;;;11.70;99.90;;;;;;5045844;28;20048;-84
2021/10/31 04:02:21;;;;;;;9.13;4.77;;;11.80;99.90;;;;;;5047793;28;20029;-85
2021/10/31 04:04:47;;;;;;;9.93;4.77;;;11.80;99.90;;;;;;5032593;28;20375;-85
2021/10/31 04:07:13;;;;;;;11.35;5.25;;;11.80;99.90;;;;;;5048033;28;20033;-84
2021/10/31 04:09:39;;;;;;;10.50;4.70;;;11.90;99.90;;;;;;5047669;28;20076;-83
2021/10/31 04:12:05;;;;;;;9.60;5.23;;;11.80;99.90;;;;;;5049061;28;20038;-85
2021/10/31 04:14:31;;;;;;;8.82;5.00;;;11.80;99.90;;;;;;5033497;28;20117;-83
2021/10/31 04:16:56;;;;;;;10.20;4.88;;;11.80;99.90;;;;;;5048398;28;20084;-85
2021/10/31 04:19:22;;;;;;;8.00;4.70;;;11.80;99.90;;;;;;5047676;28;20457;-85
2021/10/31 04:21:48;;;;;;;11.02;5.13;;;11.70;99.90;;;;;;5033374;28;20489;-84
2021/10/31 04:24:13;;;;;;;11.60;5.80;;;11.80;99.90;;;;;;5048301;28;20124;-83
2021/10/31 04:26:39;;;;;;;11.63;5.80;;;11.80;99.90;;;;;;5049173;28;20056;-83
2021/10/31 04:29:05;;;;;;;8.80;5.10;;;11.80;99.90;;;;;;5033175;28;20036;-84
2021/10/31 04:31:31;;;;;;;8.77;5.38;;;11.80;99.90;;;;;;5032326;28;20033;-83
2021/10/31 04:33:56;;;;;;;13.57;6.30;;;11.70;99.90;;;;;;5049000;28;20022;-84
2021/10/31 04:36:22;;;;;;;7.90;5.03;;;11.70;99.90;;;;;;5049163;28;20048;-84
2021/10/31 04:38:54;;;;;;;11.13;5.60;;;11.70;99.90;;;;;;5048403;28;20043;-81
2021/10/31 04:41:19;;;;;;;11.05;5.25;;;11.70;99.90;;;;;;5032412;28;20101;-84
2021/10/31 04:43:45;;;;;;;10.77;5.73;;;11.70;99.90;;;;;;5049137;28;20072;-84
2021/10/31 04:46:11;;;;;;;7.83;5.20;;;11.70;99.90;;;;;;5048839;28;20545;-86
2021/10/31 04:48:37;;;;;;;9.98;5.97;;;11.70;99.90;;;;;;5049045;28;20037;-85
2021/10/31 04:51:03;;;;;;;9.05;5.45;;;11.70;99.90;;;;;;5048727;28;20036;-84
2021/10/31 04:53:28;;;;;;;9.13;4.97;;;11.70;99.90;;;;;;5048826;28;20474;-84
2021/10/31 04:55:54;;;;;;;7.47;5.20;;;11.70;99.90;;;;;;5048413;28;20033;-84
2021/10/31 04:58:20;;;;;;;10.27;5.15;;;11.80;99.90;;;;;;5048024;28;20041;-83
2021/10/31 05:00:46;;;;;;;8.52;5.53;;;11.80;99.90;;;;;;5047722;28;20118;-83
2021/10/31 05:03:11;;;;;;;9.55;5.07;;;11.80;99.90;;;;;;5049135;28;20454;-84
2021/10/31 05:05:37;;;;;;;12.35;5.43;;;11.70;99.90;;;;;;5048560;28;20462;-84
2021/10/31 05:08:04;;;;;;;9.05;5.28;;;11.70;99.90;;;;;;5047779;28;20075;-84
2021/10/31 05:10:30;;;;;;;8.57;5.13;;;11.70;99.90;;;;;;5045194;28;20087;-84
2021/10/31 05:12:56;;;;;;;9.30;5.50;;;11.70;99.90;;;;;;5046674;28;20426;-85
2021/10/31 05:15:22;;;;;;;9.35;5.60;;;11.60;99.90;;;;;;5046725;28;20518;-85
2021/10/31 05:17:49;;;;;;;10.85;5.30;;;11.70;99.90;;;;;;5046755;28;20474;-84
2021/10/31 05:20:16;;;;;;;8.90;5.20;;;11.60;99.90;;;;;;5046205;28;20548;-83
2021/10/31 05:22:42;;;;;;;8.33;5.50;;;11.60;99.90;;;;;;5046891;28;20431;-84
2021/10/31 05:25:09;;;;;;;8.70;5.37;;;11.60;99.90;;;;;;5046423;28;20061;-84
2021/10/31 05:27:35;;;;;;;9.23;5.33;;;11.60;99.90;;;;;;5046481;28;20449;-83
2021/10/31 05:30:03;;;;;;;8.73;5.50;;;11.60;99.90;;;;;;5045685;28;20501;-84
2021/10/31 05:32:33;;;;;;;8.45;5.32;;;11.60;99.90;;;;;;5046499;28;20083;-83
2021/10/31 05:34:59;;;;;;;8.73;4.80;;;11.60;99.90;;;;;;5046541;28;20029;-85
2021/10/31 05:37:34;;;;;;;15.48;5.72;;;11.70;99.90;;;;;;5046608;28;20053;-83
2021/10/31 05:40:01;;;;;;;8.50;5.10;;;11.70;99.90;;;;;;5045933;28;20029;-84
2021/10/31 05:42:27;;;;;;;7.10;5.10;;;11.60;99.90;;;;;;5046741;28;20451;-83
2021/10/31 05:44:52;;;;;;;12.35;5.63;;;11.60;99.90;;;;;;5046095;28;20049;-85
2021/10/31 05:47:18;;;;;;;9.35;5.22;;;11.60;99.90;;;;;;5046242;28;20037;-84
2021/10/31 05:49:44;;;;;;;9.20;5.70;;;11.60;99.90;;;;;;5030083;28;20033;-84
2021/10/31 05:52:10;;;;;;;15.57;5.50;;;11.60;99.90;;;;;;5046116;28;20392;-83
2021/10/31 05:54:35;;;;;;;10.60;5.87;;;11.60;99.90;;;;;;5013058;28;20040;-85
2021/10/31 05:57:02;;;;;;;10.02;5.75;;;11.50;99.90;;;;;;5046091;28;20475;-83
2021/10/31 05:59:27;;;;;;;9.00;5.27;;;11.50;99.90;;;;;;5045226;28;20394;-84
2021/10/31 06:01:53;;;;;;;9.67;5.70;;;11.50;99.90;;;;;;5045795;28;20025;-85
2021/10/31 06:04:19;;;;;;;8.37;5.57;;;11.50;99.90;;;;;;5030654;28;20115;-84
2021/10/31 06:06:46;;;;;;;16.03;5.50;;;11.50;99.90;;;;;;5046108;28;20546;-85
2021/10/31 06:09:12;;;;;;;11.60;5.70;;;11.50;99.90;;;;;;5045625;28;20420;-84
2021/10/31 06:11:38;;;;;;;10.20;5.20;;;11.50;99.90;;;;;;5031180;28;20057;-84
2021/10/31 06:14:04;;;;;;;7.57;5.13;;;11.50;99.90;;;;;;5046142;28;20510;-83
2021/10/31 06:16:30;;;;;;;8.30;5.60;;;11.50;99.90;;;;;;5046542;28;20038;-83
2021/10/31 06:18:55;;;;;;;7.83;5.20;;;11.60;99.90;;;;;;5045826;28;20032;-83
2021/10/31 06:21:21;;;;;;;9.23;5.60;;;11.60;99.90;;;;;;5034326;28;20382;-83
2021/10/31 06:23:47;;;;;;;7.37;5.03;;;11.60;99.90;;;;;;5049697;28;20028;-85
2021/10/31 06:26:13;;;;;;;9.63;5.20;;;11.60;99.90;;;;;;5049561;28;20467;-84
2021/10/31 06:28:41;;;;;;;8.67;5.40;;;11.60;99.90;;;;;;5034136;28;20070;-83
2021/10/31 06:31:07;;;;;;;12.05;5.57;;;11.60;99.90;;;;;;5034162;28;20041;-83
2021/10/31 06:33:33;;;;;;;8.32;5.30;;;11.60;99.90;;;;;;5033101;28;20106;-83
2021/10/31 06:35:58;;;;;;;8.13;5.27;;;11.60;99.90;;;;;;5049690;28;20041;-83
2021/10/31 06:38:24;;;;;;;8.73;5.37;;;11.60;99.90;;;;;;5049673;28;20064;-83
2021/10/31 06:40:51;;;;;;;11.07;6.43;;;11.60;99.90;;;;;;5049185;28;20114;-83
2021/10/31 06:43:16;;;;;;;9.20;5.63;;;11.60;99.90;;;;;;5049566;28;20394;-83
2021/10/31 06:45:42;;;;;;;9.47;5.63;;;11.60;99.90;;;;;;5049923;28;20031;-85
2021/10/31 06:48:08;;;;;;;9.13;5.57;;;11.60;99.90;;;;;;5049717;28;20590;-85
2021/10/31 06:50:33;;;;;;;10.17;5.97;;;11.60;99.90;;;;;;5048443;28;20033;-83
2021/10/31 06:52:59;;;;;;;9.53;5.87;;;11.60;99.90;;;;;;5054945;28;20025;-82
2021/10/31 06:55:25;;;;;;;10.23;5.83;;;11.60;99.90;;;;;;5037629;28;20029;-85
2021/10/31 06:57:51;;;;;;;10.70;5.10;;;11.60;99.90;;;;;;5052172;28;20028;-84
2021/10/31 07:00:17;;;;;;;8.23;5.10;;;11.60;99.90;;;;;;5069024;28;20486;-83
2021/10/31 07:02:43;;;;;;;7.30;5.20;;;11.70;99.90;;;;;;5070147;28;20029;-82
2021/10/31 07:05:09;;;;;;;8.73;5.00;;;11.70;99.90;;;;;;5053150;28;20029;-85
2021/10/31 07:07:35;;;;;;;8.95;5.50;;;11.70;99.90;;;;;;5037354;28;20068;-83
2021/10/31 07:10:01;;;;;;;7.82;4.55;;;11.70;99.90;;;;;;5036179;28;20029;-83
2021/10/31 07:12:26;;;;;;;9.70;5.47;;;11.70;99.90;;;;;;5054890;28;20037;-85
2021/10/31 07:14:52;;;;;;;9.05;5.15;;;11.70;99.90;;;;;;5036139;28;20044;-85
2021/10/31 07:17:18;;;;;;;10.68;4.80;;;11.80;99.90;;;;;;5069016;28;20117;-84
2021/10/31 07:19:44;;;;;;;9.25;4.55;;;11.80;99.90;;;;;;5035716;28;20048;-85
2021/10/31 07:22:11;;;;;;;7.22;4.40;;;11.80;99.90;;;;;;5022454;28;20060;-84
2021/10/31 07:24:38;;;;;;;8.60;4.30;;;11.80;99.90;;;;;;5048674;28;20091;-85
2021/10/31 07:27:04;;;;;;;5.70;3.58;;;11.90;99.90;;;;;;5050370;28;20482;-83
2021/10/31 07:29:30;;;;;;;5.63;3.70;;;11.90;99.90;;;;;;5051159;28;20034;-85
2021/10/31 07:31:56;;;;;;;6.03;3.70;;;11.90;99.90;;;;;;5032298;28;20071;-85
2021/10/31 07:34:25;;;;;;;7.38;3.75;;;11.90;99.90;;;;;;5032596;28;20041;-84
2021/10/31 07:36:52;;;;;;;6.45;3.70;;;12.00;99.90;;;;;;5049499;28;20041;-85
2021/10/31 07:39:18;;;;;;;5.32;3.22;;;11.90;99.90;;;;;;5033480;28;20034;-83
2021/10/31 07:41:44;;;;;;;5.50;3.23;;;12.00;99.90;;;;;;5049518;28;20033;-83
2021/10/31 07:44:09;;;;;;;4.47;3.25;;;12.00;99.90;;;;;;5049436;28;20129;-84
2021/10/31 07:46:38;;;;;;;4.38;2.97;;;12.10;99.90;;;;;;5032957;28;20061;-84
2021/10/31 07:49:04;;;;;;;5.57;2.63;;;12.20;99.90;;;;;;5050430;28;20048;-85
2021/10/31 07:51:30;;;;;;;7.90;2.60;;;12.20;99.90;;;;;;5051915;28;20047;-83
2021/10/31 07:53:56;;;;;;;4.22;2.58;;;12.10;99.90;;;;;;5035739;28;20060;-84
2021/10/31 07:56:24;;;;;;;4.03;2.20;;;12.20;99.90;;;;;;5035087;28;20091;-83
2021/10/31 07:58:55;;;;;;;3.78;2.35;;;12.20;99.90;;;;;;5034418;28;20098;-83
2021/10/31 08:01:22;;;;;;;7.28;3.03;;;12.20;99.90;;;;;;5034947;28;20032;-83
2021/10/31 08:03:48;;;;;;;5.65;3.20;;;12.20;99.90;;;;;;5051183;28;20029;-84
2021/10/31 08:06:14;;;;;;;5.22;2.50;;;12.30;99.90;;;;;;5035130;28;20056;-84
2021/10/31 08:08:40;;;;;;;4.38;2.30;;;12.30;99.90;;;;;;5034525;28;20064;-85
2021/10/31 08:11:06;;;;;;;5.03;2.70;;;12.30;99.90;;;;;;5049761;28;20033;-85
2021/10/31 08:13:32;;;;;;;3.58;2.20;;;12.40;99.90;;;;;;5050471;28;20474;-85
2021/10/31 08:15:58;;;;;;;4.63;2.38;;;12.40;99.90;;;;;;5034425;28;20037;-86
2021/10/31 08:18:24;;;;;;;6.43;2.60;;;12.40;99.90;;;;;;5055740;28;20033;-83
2021/10/31 08:20:52;;;;;;;5.90;4.05;;;12.50;99.90;;;;;;5052817;28;20152;-84
2021/10/31 08:23:18;;;;;;;8.48;5.93;;;12.50;99.90;;;;;;5052718;28;20446;-85
2021/10/31 08:25:46;;;;;;;8.52;5.50;;;12.60;99.90;;;;;;5036227;28;20025;-85
2021/10/31 08:28:13;;;;;;;7.05;4.70;;;12.60;99.90;;;;;;5071564;28;20033;-83
2021/10/31 08:30:44;;;;;;;5.68;3.45;;;12.60;99.90;;;;;;5053901;28;20025;-83
2021/10/31 08:33:23;;;;;;;4.65;3.20;;;12.70;99.90;;;;;;5052979;28;20025;-83
2021/10/31 08:35:49;;;;;;;5.35;3.40;;;12.70;99.90;;;;;;5056489;28;20036;-81
2021/10/31 08:38:16;;;;;;;4.63;2.90;;;12.70;99.90;;;;;;5045342;28;20028;-81
2021/10/31 08:40:43;;;;;;;5.32;2.65;;;12.80;99.90;;;;;;5077058;28;20025;-83
2021/10/31 08:43:10;;;;;;;4.10;2.40;;;12.80;99.90;;;;;;5043999;28;20052;-82
2021/10/31 08:45:40;;;;;;;8.82;2.53;;;12.80;99.90;;;;;;5077091;28;20028;-82
2021/10/31 08:48:05;;;;;;;4.28;2.40;;;12.80;99.90;;;;;;5077567;28;20043;-81
2021/10/31 08:50:31;;;;;;;3.83;2.60;;;12.90;99.90;;;;;;5060450;28;20060;-82
2021/10/31 08:52:57;;;;;;;3.83;2.10;;;12.90;99.90;;;;;;5044114;28;20021;-83
2021/10/31 08:55:23;;;;;;;4.28;2.78;;;12.90;99.90;;;;;;5043357;28;20029;-83
2021/10/31 08:57:50;;;;;;;3.58;2.22;;;12.90;99.90;;;;;;5044417;28;20032;-82
2021/10/31 09:00:16;;;;;;;5.45;2.40;;;13.00;99.90;;;;;;5075066;28;20040;-82
2021/10/31 09:02:42;;;;;;;4.93;2.40;;;13.00;99.90;;;;;;5077446;28;20104;-82
2021/10/31 09:05:08;;;;;;;3.90;1.90;;;13.10;99.90;;;;;;5060981;28;20060;-82
2021/10/31 09:07:34;;;;;;;4.40;1.77;;;13.10;99.90;;;;;;5044579;28;20025;-82
2021/10/31 09:10:01;;;;;;;6.75;2.47;;;13.20;99.90;;;;;;5043931;28;20057;-84
2021/10/31 09:12:27;;;;;;;5.10;2.00;;;13.20;99.90;;;;;;5078722;28;20454;-82
2021/10/31 09:14:53;;;;;;;4.32;2.10;;;13.20;99.90;;;;;;5061497;28;20040;-83
2021/10/31 09:17:20;;;;;;;2.83;1.98;;;13.20;99.90;;;;;;5080247;28;20032;-83
2021/10/31 09:19:46;;;;;;;2.85;1.98;;;13.20;99.90;;;;;;5079133;28;20060;-83
2021/10/31 09:22:11;;;;;;;3.88;2.10;;;13.20;99.90;;;;;;5062905;28;20025;-83
2021/10/31 09:24:37;;;;;;;3.22;1.63;;;13.20;99.90;;;;;;5045359;28;20032;-83
2021/10/31 09:27:03;;;;;;;4.88;1.90;;;13.30;99.90;;;;;;5078975;28;20044;-83
2021/10/31 09:29:30;;;;;;;3.45;1.88;;;13.30;99.90;;;;;;5045378;28;20075;-83
2021/10/31 09:31:57;;;;;;;2.95;1.63;;;13.30;99.90;;;;;;5046095;28;20028;-83
2021/10/31 09:34:24;;;;;;;4.38;1.88;;;13.30;99.90;;;;;;5053576;28;20054;-83
2021/10/31 09:36:50;;;;;;;4.82;2.30;;;13.30;99.90;;;;;;5040181;28;20119;-83
2021/10/31 09:39:16;;;;;;;3.25;1.85;;;13.40;99.90;;;;;;5075020;28;20060;-83
2021/10/31 09:41:42;;;;;;;3.80;1.60;;;13.40;99.90;;;;;;5059404;28;20047;-83
2021/10/31 09:44:48;;;;;;;3.13;1.60;;;13.40;99.90;;;;;;5074865;28;20053;-83
2021/10/31 09:47:00;;;;;;;3.63;1.60;;;13.50;99.90;;;;;;5057479;28;20052;-83
2021/10/31 09:49:26;;;;;;;5.32;2.00;;;13.50;99.90;;;;;;5058585;28;20078;-83
2021/10/31 09:51:53;;;;;;;2.70;1.80;;;13.50;99.90;;;;;;5056691;28;20036;-83
2021/10/31 09:54:19;;;;;;;1.95;1.38;;;13.60;99.90;;;;;;5052063;28;20037;-84
2021/10/31 09:56:46;;;;;;;3.95;1.55;;;13.60;99.90;;;;;;5039285;28;20040;-83
2021/10/31 09:59:13;;;;;;;4.05;1.30;;;13.60;99.90;;;;;;5038548;28;20478;-83
2021/10/31 10:04:27;;;;;;;2.67;1.77;;;13.70;99.90;;;;;;5070366;28;20090;-86
2021/10/31 10:06:54;;;;;;;2.85;1.75;;;13.80;99.90;;;;;;5053790;28;20021;-83
2021/10/31 10:09:20;;;;;;;3.30;1.73;;;13.80;99.90;;;;;;5037859;28;20025;-83
2021/10/31 10:11:47;;;;;;;3.35;1.70;;;13.80;99.90;;;;;;5055407;28;20040;-83
2021/10/31 10:14:24;;;;;;;2.85;1.75;;;13.80;99.90;;;;;;5054892;28;20033;-84
2021/10/31 10:16:56;;;;;;;3.50;2.22;;;13.70;99.90;;;;;;5055578;28;20032;-82
2021/10/31 10:19:33;;;;;;;4.07;2.20;;;13.70;99.90;;;;;;5070727;28;20051;-82
2021/10/31 10:22:06;;;;;;;3.05;1.75;;;13.60;99.90;;;;;;5038363;28;20025;-82
2021/10/31 10:24:36;;;;;;;2.67;1.52;;;13.60;99.90;;;;;;5056240;28;20025;-81
2021/10/31 10:27:05;;;;;;;3.88;1.77;;;13.60;99.90;;;;;;5055853;28;20025;-81
2021/10/31 10:29:33;;;;;;;;;;;13.50;99.90;;;;;;5071293;28;20048;-82
2021/10/31 10:32:02;;;;;;;3.30;1.77;;;13.50;99.90;;;;;;5054611;28;20348;-82
2021/10/31 10:34:44;;;;;;;4.38;2.10;;;13.50;99.90;;;;;;5038399;28;20040;-81
2021/10/31 10:37:15;;;;;;;4.05;1.70;;;13.50;99.90;;;;;;5054759;28;20067;-81
2021/10/31 10:39:43;;;;;;;4.57;2.13;;;13.50;99.90;;;;;;5055895;28;20167;-85
2021/10/31 10:42:17;;;;;;;3.78;2.15;;;13.60;99.90;;;;;;5056791;28;20044;-82
2021/10/31 10:44:42;;;;;;;3.50;1.90;;;13.60;99.90;;;;;;5039185;28;20025;-84
2021/10/31 10:47:16;;;;;;;4.93;2.22;;;13.60;99.90;;;;;;5057005;28;20088;-82
2021/10/31 10:49:44;;;;;;;3.75;2.00;;;13.60;99.90;;;;;;5073667;28;20033;-82
2021/10/31 10:52:26;;;;;;;2.85;1.92;;;13.70;99.90;;;;;;5073116;28;20021;-81
2021/10/31 10:55:04;;;;;;;3.95;1.90;;;13.70;99.90;;;;;;5040388;28;20493;-81
2021/10/31 10:57:32;;;;;;;4.38;2.28;;;13.70;99.90;;;;;;5055751;28;20029;-81
2021/10/31 11:00:04;;;;;;;4.28;2.10;;;13.80;99.90;;;;;;5071678;28;20116;-81
2021/10/31 11:02:30;;;;;;;5.47;2.60;;;13.80;99.90;;;;;;5056647;28;20041;-81
2021/10/31 11:05:02;;;;;;;4.45;2.25;;;13.80;99.90;;;;;;5055677;28;20469;-82
2021/10/31 11:07:50;;;;;;;4.03;2.80;;;13.80;99.90;;;;;;5039061;28;20056;-82
2021/10/31 11:10:19;;;;;;;4.90;2.55;;;13.80;99.90;;;;;;5038728;28;20355;-82
2021/10/31 11:12:47;;;;;;;4.85;3.22;;;13.80;99.90;;;;;;5057973;28;20029;-81
2021/10/31 11:15:28;;;;;;;4.53;2.67;;;13.80;99.90;;;;;;5057791;28;20801;-82
2021/10/31 11:17:57;;;;;;;5.50;3.67;;;13.90;99.90;;;;;;5040021;28;20080;-81
2021/10/31 11:20:26;;;;;;;6.97;4.63;;;13.90;99.90;;;;;;5038770;28;20075;-82
2021/10/31 11:22:56;;;;;;;6.60;3.90;;;13.90;99.90;;;;;;5073335;28;20071;-82
2021/10/31 11:25:23;;;;;;;6.13;4.03;;;13.90;99.90;;;;;;5039300;28;20033;-81
2021/10/31 11:27:51;;;;;;;7.78;4.47;;;14.00;99.90;;;;;;5072955;28;20040;-81
2021/10/31 11:30:18;;;;;;;6.13;4.30;;;14.00;99.90;;;;;;5039653;28;20420;-82
2021/10/31 11:32:45;;;;;;;5.20;3.40;;;14.00;99.90;;;;;;5057833;28;20064;-85
2021/10/31 11:35:14;;;;;;;4.88;3.72;;;14.00;99.90;;;;;;5036980;28;20037;-86
2021/10/31 11:38:09;;;;;;;6.30;3.60;;;13.90;99.90;;;;;;5058401;28;20572;-84
2021/10/31 11:41:07;;;;;;;5.68;3.70;;;14.00;99.90;;;;;;5059757;28;20048;-85
2021/10/31 11:43:36;;;;;;;5.68;3.30;;;14.00;99.90;;;;;;5094089;28;20035;-84
2021/10/31 11:46:05;;;;;;;5.60;3.40;;;14.00;99.90;;;;;;5074068;28;20478;-83
2021/10/31 11:48:34;;;;;;;7.20;3.85;;;14.00;99.90;;;;;;5074643;28;20052;-87
2021/10/31 11:51:00;;;;;;;5.85;3.83;;;14.00;99.90;;;;;;5071979;28;20032;-84
2021/10/31 11:53:40;;;;;;;7.85;3.75;;;14.00;99.90;;;;;;5089538;28;20032;-84
2021/10/31 11:56:20;;;;;;;6.80;3.00;;;14.00;99.90;;;;;;5072379;28;20032;-87
2021/10/31 11:58:53;;;;;;;6.18;3.35;;;14.10;99.90;;;;;;5074666;28;20745;-86
2021/10/31 12:01:44;;;;;;;5.03;3.05;;;14.00;99.90;;;;;;5093623;28;20215;-86
2021/10/31 12:04:11;;;;;;;4.32;3.13;;;14.10;99.90;;;;;;5079479;28;20125;-86
2021/10/31 12:06:40;;;;;;;5.47;2.88;;;14.10;99.90;;;;;;5077249;28;20025;-86
2021/10/31 12:09:21;;;;;;;5.05;3.58;;;14.10;99.90;;;;;;5062104;28;20489;-84
2021/10/31 12:11:47;;;;;;;6.38;3.67;;;14.10;99.90;;;;;;5074804;28;20125;-84
2021/10/31 12:14:14;;;;;;;6.38;3.78;;;14.20;99.90;;;;;;5058202;28;20039;-84
2021/10/31 12:16:57;;;;;;;3.88;2.80;;;14.30;99.90;;;;;;5092872;28;20063;-84
2021/10/31 12:19:56;;;;;;;4.95;3.38;;;14.30;99.90;;;;;;5057360;28;20078;-82
2021/10/31 12:22:30;;;;;;;4.95;2.72;;;14.20;99.90;;;;;;5058410;28;20029;-84
2021/10/31 12:25:04;;;;;;;4.20;3.05;;;14.30;99.90;;;;;;5056914;28;20024;-83
2021/10/31 12:27:50;;;;;;;5.32;3.22;;;14.30;99.90;;;;;;5059605;28;20131;-86
2021/10/31 12:30:25;;;;;;;5.38;3.08;;;14.30;99.90;;;;;;5053916;28;20111;-85
2021/10/31 12:33:14;;;;;;;4.93;2.83;;;14.30;99.90;;;;;;5069857;28;20060;-82
2021/10/31 12:35:46;;;;;;;6.55;2.70;;;14.30;99.90;;;;;;5056843;28;20032;-83
2021/10/31 12:38:24;;;;;;;5.20;2.78;;;14.40;99.90;;;;;;5075789;28;20111;-84
2021/10/31 12:41:06;;;;;;;4.95;2.70;;;14.40;99.90;;;;;;5060377;28;20043;-83
2021/10/31 12:43:56;;;;;;;4.45;3.00;;;14.40;99.90;;;;;;5074012;28;20024;-84
2021/10/31 12:46:32;;;;;;;4.40;2.72;;;14.50;99.90;;;;;;5090632;28;20028;-85
2021/10/31 12:49:05;;;;;;;6.35;3.00;;;14.50;99.90;;;;;;5074644;28;20101;-87
2021/10/31 12:51:39;;;;;;;4.72;2.83;;;14.50;99.90;;;;;;5059950;28;20092;-84
2021/10/31 12:54:09;;;;;;;5.10;2.97;;;14.60;99.90;;;;;;5081360;28;20535;-83
2021/10/31 12:56:35;;;;;;;3.97;2.55;;;14.60;99.90;;;;;;5057573;28;20477;-83
2021/10/31 12:59:17;;;;;;;4.15;2.75;;;14.70;99.90;;;;;;5056094;28;20029;-83